Latest Weather Observations for Tocal

IDN60801

Issued at 9:05 pm EDT Saturday 22 November 2014 (issued every 30 minutes, with the page automatically refreshed every 10 minutes)

About weather observations | Map of weather stations | Latest weather observations for NSW | Other Formats
Station Details ID: 061250 Name: TOCAL AWS Lat: -32.63 Lon: 151.59 Height: 30.0 m
Data from the previous 72 hours. | See also: Recent months at Tocal
Date/Time
EDT
Temp
°C
App
Temp
°C
Dew
Point
Rel
Hum
%
Delta-T
°C
Wind Press
QNH
hPa
Press
MSL
hPa
Rain
since 9 am
mm
Dir
 
Spd
km/h
Gust
km/h
Spd
kts
Gust
kts
22/09:00pm 21.0 21.6 18.6 86 1.5 SSE 13 17 7 9 - - 0.0
22/08:30pm 21.2 21.8 18.5 84 1.7 S 13 17 7 9 - - 0.0
22/08:00pm 21.6 21.6 18.2 81 2.1 S 15 20 8 11 - - 0.0
22/07:30pm 22.1 22.1 18.1 78 2.5 S 15 20 8 11 - - 0.0
22/07:00pm 23.2 22.7 17.9 72 3.3 S 17 28 9 15 - - 0.0
22/06:30pm 25.2 24.7 17.9 64 4.6 S 17 26 9 14 - - 0.0
22/06:00pm 27.0 26.0 17.6 56 5.9 S 19 30 10 16 - - 0.0
22/05:30pm 28.4 28.2 17.7 52 6.8 S 15 26 8 14 - - 0.0
22/05:00pm 29.3 28.8 17.8 50 7.3 SSE 17 26 9 14 - - 0.0
22/04:30pm 30.4 29.9 17.7 46 8.1 SSE 17 28 9 15 - - 0.0
22/04:00pm 30.3 29.7 17.6 46 8.1 SE 17 26 9 14 - - 0.0
22/03:30pm 31.7 30.9 17.2 42 9.2 SSE 17 28 9 15 - - 0.0
22/03:00pm 31.0 30.6 17.1 43 8.8 SSE 15 26 8 14 - - 0.0
22/02:30pm 30.7 30.8 16.5 42 8.9 SE 11 19 6 10 - - 0.0
22/02:00pm 30.6 31.0 16.4 42 8.9 S 9 17 5 9 - - 0.0
22/01:30pm 29.2 29.6 16.2 45 8.1 SSE 9 13 5 7 - - 0.0
22/01:00pm 28.1 28.2 16.5 49 7.2 SE 11 17 6 9 - - 0.0
22/12:30pm 27.4 27.5 16.4 51 6.8 E 11 19 6 10 - - 0.0
22/12:00pm 27.1 26.7 16.2 51 6.7 ESE 13 17 7 9 - - 0.0
22/11:30am 25.0 25.1 15.6 56 5.7 SSE 9 15 5 8 - - 0.0
22/11:00am 24.3 23.7 15.7 58 5.2 SSW 13 19 7 10 - - 0.0
22/10:30am 23.6 23.7 15.6 61 4.8 SSW 9 15 5 8 - - 0.0
22/10:00am 22.7 22.8 15.5 64 4.3 S 9 17 5 9 - - 0.0
22/09:30am 21.8 21.5 15.4 67 3.8 S 11 19 6 10 - - 0.0
22/09:00am 21.1 20.9 15.6 71 3.3 SW 11 19 6 10 - - 0.0
22/08:30am 20.8 20.2 15.6 72 3.1 SSW 13 17 7 9 - - 0.0
22/08:00am 20.5 20.3 15.6 73 2.9 SW 11 17 6 9 - - 0.0
22/07:30am 20.5 20.0 15.8 74 2.8 SW 13 17 7 9 - - 0.0
22/07:00am 20.2 19.6 15.7 75 2.7 SW 13 19 7 10 - - 0.0
22/06:30am 20.2 20.0 15.8 76 2.6 SW 11 15 6 8 - - 0.0
22/06:00am 20.2 20.1 16.0 77 2.5 SSW 11 15 6 8 - - 0.0
22/05:30am 20.2 20.1 16.0 77 2.5 SSW 11 17 6 9 - - 0.0
22/05:00am 20.2 20.5 16.0 77 2.5 SSW 9 17 5 9 - - 0.0
22/04:30am 20.4 20.1 16.4 78 2.4 SSW 13 24 7 13 - - 0.0
22/04:00am 20.5 20.2 16.4 77 2.5 SSW 13 22 7 12 - - 0.0
22/03:30am 20.7 20.3 16.2 75 2.7 SSW 13 26 7 14 - - 0.0
22/03:00am 21.0 20.3 16.4 75 2.8 SSW 15 22 8 12 - - 0.0
22/02:30am 21.2 21.0 16.8 76 2.7 S 13 26 7 14 - - 0.0
22/02:00am 21.6 21.4 16.8 74 2.9 S 13 19 7 10 - - 0.0
22/01:30am 21.7 22.4 17.1 75 2.8 S 9 17 5 9 - - 0.0
22/01:00am 21.7 22.1 17.3 76 2.7 SSW 11 17 6 9 - - 0.0
22/12:30am 21.6 22.5 17.6 78 2.5 SSW 9 13 5 7 - - 0.0
22/12:00am 21.7 22.2 17.5 77 2.6 S 11 20 6 11 - - 0.0
 
Date/Time
EDT
Temp
°C
App
Temp
°C
Dew
Point
Rel
Hum
%
Delta-T
°C
Wind Press
QNH
hPa
Press
MSL
hPa
Rain
since 9 am
mm
Dir
 
Spd
km/h
Gust
km/h
Spd
kts
Gust
kts
21/11:30pm 22.1 22.3 17.7 76 2.7 S 13 28 7 15 - - 0.0
21/11:00pm 22.9 22.7 18.6 77 2.7 SSW 17 30 9 16 - - 0.0
21/10:30pm 23.9 24.8 19.2 75 3.0 SSW 13 22 7 12 - - 0.0
21/10:00pm 24.8 25.7 19.3 71 3.5 S 13 26 7 14 - - 0.0
21/09:30pm 25.7 27.0 19.3 67 4.1 S 11 19 6 10 - - 0.0
21/09:00pm 27.8 28.3 19.3 60 5.5 SSE 15 32 8 17 - - 0.0
21/08:59pm 27.9 28.0 19.2 59 5.6 SSE 17 26 9 14 - - 0.0
21/08:58pm 27.9 28.0 19.2 59 5.6 S 17 32 9 17 - - 0.0
21/08:30pm 33.1 32.7 12.9 29 12.1 W 7 9 4 5 - - 0.0
21/08:00pm 33.8 33.1 12.1 26 12.9 WNW 7 11 4 6 - - 0.0
21/07:30pm 34.9 32.9 11.4 24 13.9 N 13 28 7 15 - - 0.0
21/07:00pm 35.5 34.2 11.1 22 14.4 N 9 11 5 6 - - 0.0
21/06:30pm 36.0 34.9 11.9 23 14.4 NNW 9 13 5 7 - - 0.0
21/06:00pm 36.9 33.9 10.6 20 15.5 NW 17 22 9 12 - - 0.0
21/05:30pm 37.5 33.7 9.7 18 16.2 NW 20 32 11 17 - - 0.0
21/05:00pm 37.7 34.5 10.1 19 16.2 NW 17 26 9 14 - - 0.0
21/04:30pm 38.1 33.5 9.7 18 16.6 NW 24 41 13 22 - - 0.0
21/04:00pm 38.9 34.2 9.4 17 17.2 NNW 24 33 13 18 - - 0.0
21/03:30pm 38.9 33.0 9.1 16 17.3 NNW 30 41 16 22 - - 0.0
21/03:18pm 38.8 33.2 8.6 16 17.4 NW 28 46 15 25 - - 0.0
21/03:17pm 38.8 33.2 8.6 16 17.4 NW 28 46 15 25 - - 0.0
21/03:00pm 38.1 34.6 10.2 18 16.4 W 19 26 10 14 - - 0.0
21/02:30pm 35.1 31.8 12.7 26 13.5 WNW 22 35 12 19 - - 0.0
21/02:00pm 36.9 33.8 12.2 22 14.9 WNW 20 35 11 19 - - 0.0
21/01:30pm 37.2 34.1 12.2 22 15.1 NNW 20 32 11 17 - - 0.0
21/01:00pm 39.0 34.2 9.0 16 17.4 WNW 24 35 13 19 - - 0.0
21/12:30pm 39.6 36.0 13.2 21 16.3 WNW 24 41 13 22 - - 0.0
21/12:00pm 38.5 36.0 14.1 23 15.2 NW 20 30 11 16 - - 0.0
21/11:30am 37.5 35.0 15.1 26 14.1 NW 22 35 12 19 - - 0.0
21/11:00am 36.7 34.6 15.2 27 13.5 NW 20 32 11 17 - - 0.0
21/10:43am 36.2 32.3 14.5 27 13.5 NW 28 46 15 25 - - 0.0
21/10:42am 36.2 32.3 14.5 27 13.5 NW 28 46 15 25 - - 0.0
21/10:30am 35.9 32.4 14.5 27 13.3 NW 26 39 14 21 - - 0.0
21/10:12am 35.8 31.8 15.2 29 12.9 NW 30 48 16 26 - - 0.0
21/10:11am 35.8 31.8 15.2 29 12.9 NW 30 48 16 26 - - 0.0
21/10:00am 35.2 31.2 15.2 30 12.5 NNW 30 43 16 23 - - 0.0
21/09:30am 34.5 32.3 15.9 33 11.7 NNW 22 35 12 19 - - 0.0
21/09:00am 31.6 32.6 16.9 41 9.3 NE 7 15 4 8 - - 0.0
21/08:30am 27.2 28.7 16.6 52 6.6 N 4 7 2 4 - - 0.0
21/08:00am 24.7 26.3 17.8 65 4.3 NW 6 7 3 4 - - 0.0
21/07:30am 23.1 25.3 16.4 66 4.1 CALM 0 0 0 0 - - 0.0
21/07:00am 22.4 24.7 17.6 74 3.0 NW 2 6 1 3 - - 0.0
21/06:30am 22.6 23.9 17.6 73 3.1 SE 7 11 4 6 - - 0.0
21/06:00am 21.8 22.2 16.2 70 3.4 SW 9 20 5 11 - - 0.0
21/05:30am 21.3 23.3 17.0 76 2.6 WSW 2 7 1 4 - - 0.0
21/05:00am 20.5 22.0 17.7 84 1.7 NW 6 7 3 4 - - 0.0
21/04:30am 21.1 23.2 18.2 83 1.8 WNW 4 7 2 4 - - 0.0
21/04:00am 22.0 24.6 17.6 76 2.7 CALM 0 0 0 0 - - 0.0
21/03:30am 21.4 24.5 18.7 84 1.7 CALM 0 0 0 0 - - 0.0
21/03:00am 23.0 26.1 18.6 76 2.8 CALM 0 0 0 0 - - 0.0
21/02:30am 22.7 24.8 18.9 79 2.4 W 6 7 3 4 - - 0.0
21/02:00am 23.1 26.4 19.2 79 2.5 CALM 0 0 0 0 - - 0.0
21/01:30am 24.0 27.4 19.3 75 3.0 CALM 0 0 0 0 - - 0.0
21/01:00am 24.2 26.4 19.2 73 3.2 NW 6 7 3 4 - - 0.0
21/12:30am 26.4 30.0 19.8 67 4.3 CALM 0 0 0 0 - - 0.0
21/12:00am 26.4 29.1 19.4 65 4.5 W 4 6 2 3 - - 0.0
 
Date/Time
EDT
Temp
°C
App
Temp
°C
Dew
Point
Rel
Hum
%
Delta-T
°C
Wind Press
QNH
hPa
Press
MSL
hPa
Rain
since 9 am
mm
Dir
 
Spd
km/h
Gust
km/h
Spd
kts
Gust
kts
20/11:30pm 27.9 30.9 19.2 59 5.6 N 2 11 1 6 - - 0.0
20/11:00pm 27.9 30.8 19.1 58 5.7 S 2 7 1 4 - - 0.0
20/10:30pm 28.4 29.5 18.9 56 6.1 NNE 11 17 6 9 - - 0.0
20/10:00pm 28.7 29.3 18.6 54 6.5 NE 13 17 7 9 - - 0.0
20/09:30pm 29.1 30.5 18.7 53 6.7 NE 9 17 5 9 - - 0.0
20/09:00pm 29.3 29.3 18.0 50 7.2 NE 15 20 8 11 - - 0.0
20/08:30pm 29.5 28.9 17.5 48 7.6 NNE 17 24 9 13 - - 0.0
20/08:00pm 29.8 29.3 17.7 48 7.7 NE 17 30 9 16 - - 0.0
20/07:30pm 30.3 29.4 17.8 47 8.0 NE 19 28 10 15 - - 0.0
20/07:00pm 30.7 29.3 17.9 46 8.2 NE 22 32 12 17 - - 0.0
20/06:30pm 31.5 30.9 17.6 43 8.9 NE 17 24 9 13 - - 0.0
20/06:00pm 31.9 31.7 16.7 40 9.6 ENE 13 19 7 10 - - 0.0
20/05:30pm 32.4 31.8 17.6 41 9.5 ENE 17 33 9 18 - - 0.0
20/05:00pm 33.2 32.9 18.2 41 9.7 ESE 17 26 9 14 - - 0.0
20/04:30pm 34.2 33.1 17.2 36 10.9 E 19 32 10 17 - - 0.0
20/04:00pm 34.5 33.4 16.4 34 11.5 ESE 17 26 9 14 - - 0.0
20/03:30pm 34.8 34.7 17.0 34 11.4 SSE 13 20 7 11 - - 0.0
20/03:00pm 34.9 34.2 13.1 27 13.2 ENE 9 19 5 10 - - 0.0
20/02:30pm 33.9 32.8 13.0 28 12.6 NE 11 20 6 11 - - 0.0
20/02:00pm 33.8 32.4 13.3 29 12.4 ENE 13 20 7 11 - - 0.0
20/01:30pm 33.0 33.1 15.5 35 10.9 ENE 9 13 5 7 - - 0.0
20/01:00pm 32.7 32.0 15.3 35 10.8 ENE 13 17 7 9 - - 0.0
20/12:30pm 31.9 31.6 16.5 39 9.7 ESE 13 17 7 9 - - 0.0
20/12:00pm 30.5 30.5 17.1 44 8.5 SE 13 17 7 9 - - 0.0
20/11:30am 30.6 31.5 17.6 45 8.3 SE 9 17 5 9 - - 0.0
20/11:00am 28.4 29.1 17.1 50 7.1 SE 9 15 5 8 - - 0.0
20/10:30am 26.7 27.4 17.1 55 6.0 E 9 15 5 8 - - 0.0
20/10:00am 26.4 27.6 17.3 57 5.7 E 7 13 4 7 - - 0.0
20/09:30am 24.1 25.2 17.0 64 4.4 NE 7 15 4 8 - - 0.0
20/09:00am 23.1 24.7 16.9 68 3.8 N 4 9 2 5 - - 0.0
20/08:30am 22.1 23.2 17.2 74 3.0 NE 7 11 4 6 - - 0.0
20/08:00am 19.8 20.2 17.2 85 1.6 NE 11 15 6 8 - - 0.0
20/07:30am 18.6 18.9 17.1 91 0.9 NE 11 13 6 7 - - 0.0
20/07:00am 17.0 19.2 16.5 97 0.3 CALM 0 6 0 3 - - 0.0
20/06:30am 15.9 16.6 15.7 99 0.1 ENE 6 9 3 5 - - 0.0
20/06:00am 15.4 16.7 15.2 99 0.1 N 2 7 1 4 - - 0.0
20/05:30am 15.1 15.9 14.9 99 0.1 WNW 4 7 2 4 - - 0.0
20/05:00am 15.5 17.2 15.3 99 0.1 CALM 0 0 0 0 - - 0.0
20/04:30am 16.1 17.9 15.6 97 0.3 CALM 0 0 0 0 - - 0.0
20/04:00am 16.5 18.5 16.0 97 0.3 CALM 0 0 0 0 - - 0.0
20/03:30am 16.6 18.6 15.9 96 0.4 CALM 0 0 0 0 - - 0.0
20/03:00am 17.6 19.0 16.4 93 0.7 WSW 4 7 2 4 - - 0.0
20/02:30am 17.9 18.7 16.4 91 0.9 W 7 9 4 5 - - 0.0
20/02:00am 19.7 20.6 16.7 83 1.8 WSW 7 7 4 4 - - 0.0
20/01:30am 20.3 21.3 16.8 80 2.1 ESE 7 9 4 5 - - 0.0
20/01:00am 20.5 21.1 16.9 80 2.2 ENE 9 13 5 7 - - 0.0
20/12:30am 20.4 19.9 16.9 80 2.1 NE 15 24 8 13 - - 0.0
20/12:00am 20.7 19.8 16.9 79 2.3 NE 17 26 9 14 - - 0.0
 
Date/Time
EDT
Temp
°C
App
Temp
°C
Dew
Point
Rel
Hum
%
Delta-T
°C
Wind Press
QNH
hPa
Press
MSL
hPa
Rain
since 9 am
mm
Dir
 
Spd
km/h
Gust
km/h
Spd
kts
Gust
kts
19/11:30pm 20.6 20.8 16.8 79 2.3 NE 11 17 6 9 - - 0.0
19/11:00pm 20.6 21.1 16.5 77 2.5 NE 9 17 5 9 - - 0.0
19/10:30pm 20.2 20.9 16.2 78 2.4 E 7 11 4 6 - - 0.0
19/10:00pm 20.1 21.1 16.4 79 2.2 ESE 6 7 3 4 - - 0.0
19/09:30pm 19.6 21.4 17.5 88 1.3 SE 4 15 2 8 - - 0.0

Other Formats:

Comma delimited format used in spreadsheet applications
http://www.bom.gov.au/fwo/IDN60801/IDN60801.94775.axf

JavaScript Object Notation format (JSON) in row-major order
http://www.bom.gov.au/fwo/IDN60801/IDN60801.94775.json